Time;durP1;ratioP1;P1;durP2;ratioP2;P2;SDS_P1;SDS_P2;PMS_P1;PMS_P2;Temp;Humidity;BMP_temperature;BMP_pressure;BME280_temperature;BME280_humidity;BME280_pressure;Samples;Min_cycle;Max_cycle;Signal;HPM_P1;HPM_P2
2022/06/10 00:01:00;;;;;;;5.63;3.40;;;18.90;84.70;;;;;;5054233;28;20029;-67
2022/06/10 00:03:27;;;;;;;7.38;3.58;;;18.90;84.90;;;;;;5055596;28;20040;-66
2022/06/10 00:05:56;;;;;;;5.28;3.05;;;18.90;85.00;;;;;;5070063;28;20062;-67
2022/06/10 00:08:26;;;;;;;4.22;2.60;;;18.80;85.10;;;;;;5056220;28;20049;-66
2022/06/10 00:10:52;;;;;;;5.13;2.30;;;18.80;85.00;;;;;;5054247;28;20526;-67
2022/06/10 00:13:20;;;;;;;3.97;2.50;;;18.80;85.10;;;;;;5056098;28;20052;-67
2022/06/10 00:15:46;;;;;;;3.65;2.50;;;18.70;85.80;;;;;;5054037;28;20025;-67
2022/06/10 00:18:12;;;;;;;6.35;3.08;;;18.70;85.20;;;;;;5055706;28;20479;-68
2022/06/10 00:20:39;;;;;;;2.60;2.10;;;18.60;85.10;;;;;;5062565;28;20033;-68
2022/06/10 00:23:05;;;;;;;5.28;2.92;;;18.60;85.00;;;;;;5054361;28;20476;-68
2022/06/10 00:25:31;;;;;;;5.47;2.42;;;18.60;84.80;;;;;;5060009;28;20043;-68
2022/06/10 00:27:56;;;;;;;2.53;2.00;;;18.60;84.90;;;;;;5056514;28;20055;-68
2022/06/10 00:30:25;;;;;;;4.97;2.42;;;18.60;84.80;;;;;;5054925;28;20108;-68
2022/06/10 00:32:50;;;;;;;4.68;2.42;;;18.50;84.90;;;;;;5062889;28;20041;-67
2022/06/10 00:35:17;;;;;;;3.60;2.45;;;18.50;84.80;;;;;;5054129;28;20435;-68
2022/06/10 00:37:42;;;;;;;5.00;3.55;;;18.50;84.70;;;;;;5063301;28;20072;-69
2022/06/10 00:40:18;;;;;;;6.10;2.70;;;18.50;84.70;;;;;;5054062;28;20045;-68
2022/06/10 00:42:44;;;;;;;3.53;2.33;;;18.50;84.80;;;;;;5063759;28;20071;-68
2022/06/10 00:45:54;;;;;;;3.67;2.40;;;18.50;84.80;;;;;;5063466;28;20052;-68
2022/06/10 00:48:26;;;;;;;4.07;2.85;;;18.40;84.90;;;;;;5043801;28;20032;-68
2022/06/10 00:50:52;;;;;;;5.03;2.50;;;18.30;85.00;;;;;;5055836;28;20041;-68
2022/06/10 00:53:23;;;;;;;4.65;2.65;;;18.30;85.10;;;;;;5058043;28;20025;-68
2022/06/10 00:55:51;;;;;;;4.00;3.00;;;18.30;85.30;;;;;;5053539;28;20162;-68
2022/06/10 00:58:29;;;;;;;5.07;2.90;;;18.20;85.50;;;;;;5058542;28;20033;-68
2022/06/10 01:00:54;;;;;;;3.90;2.85;;;18.10;85.70;;;;;;5058607;28;20037;-68
2022/06/10 01:03:20;;;;;;;2.90;2.42;;;18.10;86.00;;;;;;5068280;28;20094;-68
2022/06/10 01:05:45;;;;;;;5.28;2.50;;;18.00;86.10;;;;;;5073277;28;20025;-68
2022/06/10 01:08:16;;;;;;;4.90;3.22;;;18.00;86.20;;;;;;5055007;28;20517;-68
2022/06/10 01:11:28;;;;;;;4.88;2.80;;;18.10;86.80;;;;;;5071880;28;20111;-68
2022/06/10 01:14:25;;;;;;;6.18;2.58;;;18.00;86.20;;;;;;5053374;28;20171;-67
2022/06/10 01:17:29;;;;;;;4.10;2.72;;;18.00;86.40;;;;;;5053444;28;20037;-67
2022/06/10 01:20:07;;;;;;;3.58;2.83;;;17.90;86.50;;;;;;5030173;28;20071;-68
2022/06/10 01:23:16;;;;;;;4.63;2.60;;;17.90;86.50;;;;;;5053394;28;20505;-68
2022/06/10 01:26:32;;;;;;;3.83;2.42;;;18.00;86.80;;;;;;5053156;28;20032;-68
2022/06/10 01:29:00;;;;;;;5.97;3.55;;;17.90;87.20;;;;;;5016641;28;20025;-68
2022/06/10 01:31:40;;;;;;;4.65;3.17;;;17.90;87.10;;;;;;5048783;28;20067;-68
2022/06/10 01:34:09;;;;;;;4.22;2.80;;;17.80;87.50;;;;;;5060416;28;20124;-69
2022/06/10 01:36:34;;;;;;;5.95;2.88;;;17.80;87.80;;;;;;5068125;28;20115;-68
2022/06/10 01:39:09;;;;;;;4.45;3.17;;;17.70;87.80;;;;;;5071457;28;20112;-68
2022/06/10 01:42:00;;;;;;;;;;;17.70;88.20;;;;;;5065249;28;20120;-68
2022/06/10 01:45:00;;;;;;;5.63;3.10;;;17.70;88.00;;;;;;5052942;28;19926;-68
2022/06/10 01:47:56;;;;;;;6.00;3.20;;;17.60;89.10;;;;;;5063568;28;20032;-68
2022/06/10 01:50:36;;;;;;;6.20;3.70;;;17.60;88.70;;;;;;5062139;28;20373;-68
2022/06/10 01:53:14;;;;;;;9.05;3.47;;;17.50;89.00;;;;;;5068569;28;20045;-68
2022/06/10 01:55:48;;;;;;;7.47;3.97;;;17.50;89.20;;;;;;5060795;28;20037;-68
2022/06/10 01:58:26;;;;;;;8.13;4.63;;;17.50;89.50;;;;;;5070191;28;20040;-67
2022/06/10 02:01:02;;;;;;;8.48;4.10;;;17.50;89.40;;;;;;5070654;28;20443;-68
2022/06/10 02:03:41;;;;;;;8.90;4.70;;;17.40;89.90;;;;;;5060200;28;20033;-68
2022/06/10 02:06:10;;;;;;;8.30;4.75;;;17.40;89.90;;;;;;5058017;28;20035;-68
2022/06/10 02:08:44;;;;;;;11.75;5.03;;;17.40;90.00;;;;;;5060648;28;20068;-68
2022/06/10 02:11:16;;;;;;;9.07;4.55;;;17.40;90.20;;;;;;5052809;28;20021;-69
2022/06/10 02:13:49;;;;;;;9.73;4.88;;;17.40;90.20;;;;;;5060546;28;20123;-67
2022/06/10 02:16:17;;;;;;;9.88;4.50;;;17.40;90.30;;;;;;5052375;28;20342;-67
2022/06/10 02:18:50;;;;;;;8.38;4.15;;;17.40;90.30;;;;;;5056825;28;20032;-68
2022/06/10 02:21:23;;;;;;;9.73;4.85;;;17.40;90.40;;;;;;5069528;28;20079;-68
2022/06/10 02:23:56;;;;;;;6.93;3.97;;;17.40;90.40;;;;;;5059305;28;20155;-68
2022/06/10 02:26:23;;;;;;;7.53;4.30;;;17.40;90.50;;;;;;5057384;28;20068;-68
2022/06/10 02:28:53;;;;;;;6.85;3.70;;;17.40;90.60;;;;;;5062938;28;20032;-68
2022/06/10 02:31:23;;;;;;;7.38;3.47;;;17.40;90.60;;;;;;5065701;28;20041;-68
2022/06/10 02:33:49;;;;;;;7.88;3.85;;;17.30;90.70;;;;;;5055169;28;20033;-67
2022/06/10 02:36:27;;;;;;;8.63;4.18;;;17.30;90.80;;;;;;5064544;28;20033;-68
2022/06/10 02:39:32;;;;;;;7.97;3.95;;;17.30;90.90;;;;;;5071529;28;20081;-68
2022/06/10 02:42:07;;;;;;;6.95;4.45;;;17.20;91.00;;;;;;5068621;28;20031;-68
2022/06/10 02:44:49;;;;;;;6.53;3.65;;;17.10;91.10;;;;;;5071761;28;20048;-68
2022/06/10 02:47:49;;;;;;;6.32;4.30;;;17.20;91.10;;;;;;5068594;28;20515;-68
2022/06/10 02:50:16;;;;;;;8.13;4.05;;;17.20;91.20;;;;;;5070932;28;20094;-68
2022/06/10 02:52:42;;;;;;;5.25;3.72;;;17.20;91.20;;;;;;5054417;28;20428;-68
2022/06/10 02:55:14;;;;;;;8.25;4.20;;;17.20;91.50;;;;;;5067300;28;20028;-68
2022/06/10 03:03:33;;;;;;;5.60;3.35;;;17.20;91.40;;;;;;5056909;28;20118;-68
2022/06/10 03:06:05;;;;;;;7.28;3.10;;;17.20;91.70;;;;;;5067912;28;20035;-67
2022/06/10 03:08:40;;;;;;;6.82;4.25;;;17.20;91.60;;;;;;5074862;28;20052;-68
2022/06/10 03:11:25;;;;;;;4.82;2.92;;;17.20;91.50;;;;;;5065303;28;20036;-68
2022/06/10 03:14:07;;;;;;;4.47;3.33;;;17.30;91.60;;;;;;5075394;28;20063;-68
2022/06/10 03:16:57;;;;;;;5.10;3.00;;;17.30;91.70;;;;;;5060015;28;20078;-68
2022/06/10 03:19:44;;;;;;;6.82;3.20;;;17.30;91.70;;;;;;5074022;28;20094;-68
2022/06/10 03:22:41;;;;;;;4.45;3.13;;;17.30;91.80;;;;;;5062849;28;20087;-68
2022/06/10 03:25:18;;;;;;;5.53;3.40;;;17.20;91.80;;;;;;5067835;28;20488;-69
2022/06/10 03:28:04;;;;;;;3.63;2.70;;;17.20;91.80;;;;;;5073734;28;20017;-69
2022/06/10 03:30:34;;;;;;;6.07;3.20;;;17.20;91.90;;;;;;5058718;28;20357;-69
2022/06/10 03:33:12;;;;;;;5.18;2.95;;;17.20;91.90;;;;;;5069003;28;20043;-69
2022/06/10 03:35:51;;;;;;;5.78;3.38;;;17.20;91.80;;;;;;5075124;28;20066;-69
2022/06/10 03:38:17;;;;;;;6.35;3.30;;;17.30;91.90;;;;;;5055878;28;20036;-69
2022/06/10 03:40:45;;;;;;;4.22;2.90;;;17.30;92.00;;;;;;5054980;28;20029;-69
2022/06/10 03:43:13;;;;;;;3.65;2.75;;;17.30;92.00;;;;;;5055617;28;20120;-69
2022/06/10 03:45:49;;;;;;;5.63;2.95;;;17.30;92.00;;;;;;5054927;28;20048;-69
2022/06/10 03:48:18;;;;;;;5.78;3.47;;;17.30;92.00;;;;;;5065331;28;20021;-68
2022/06/10 03:50:46;;;;;;;6.07;3.40;;;17.30;92.00;;;;;;5054916;28;20057;-68
2022/06/10 03:53:15;;;;;;;8.45;3.13;;;17.30;92.30;;;;;;5072193;28;20044;-68
2022/06/10 03:55:41;;;;;;;5.20;3.55;;;17.30;92.10;;;;;;5071171;28;20055;-68
2022/06/10 03:58:07;;;;;;;4.00;2.83;;;17.30;92.10;;;;;;5068820;28;20488;-68
2022/06/10 04:00:33;;;;;;;4.50;3.08;;;17.30;92.20;;;;;;5071690;28;20422;-68
2022/06/10 04:02:59;;;;;;;3.85;2.80;;;17.30;92.30;;;;;;5054707;28;20055;-68
2022/06/10 04:05:24;;;;;;;5.53;3.03;;;17.30;92.30;;;;;;5054959;28;20487;-68
2022/06/10 04:07:50;;;;;;;6.03;2.88;;;17.30;92.30;;;;;;5068623;28;20132;-68
2022/06/10 04:10:22;;;;;;;5.32;2.90;;;17.30;92.40;;;;;;5066684;28;20111;-68
2022/06/10 04:12:49;;;;;;;5.45;3.40;;;17.40;92.40;;;;;;5058675;28;20128;-68
2022/06/10 04:15:15;;;;;;;6.60;3.55;;;17.30;92.40;;;;;;5054653;28;20053;-68
2022/06/10 04:17:45;;;;;;;6.40;3.50;;;17.40;92.30;;;;;;5067421;28;20040;-68
2022/06/10 04:20:20;;;;;;;7.25;3.38;;;17.30;92.40;;;;;;5059382;28;20490;-68
2022/06/10 04:22:46;;;;;;;4.95;3.13;;;17.30;92.40;;;;;;5072519;28;20089;-68
2022/06/10 04:25:12;;;;;;;5.85;3.42;;;17.30;92.40;;;;;;5059389;28;20480;-68
2022/06/10 04:27:38;;;;;;;5.97;3.20;;;17.30;92.40;;;;;;5054742;28;20029;-68
2022/06/10 04:30:06;;;;;;;5.05;3.90;;;17.30;92.50;;;;;;5057594;28;20480;-68
2022/06/10 04:32:32;;;;;;;7.20;3.60;;;17.30;92.50;;;;;;5054893;28;20531;-68
2022/06/10 04:34:57;;;;;;;7.40;4.32;;;17.30;92.50;;;;;;5064711;28;20106;-68
2022/06/10 04:37:23;;;;;;;5.97;4.00;;;17.30;92.40;;;;;;5063606;28;20112;-68
2022/06/10 04:39:49;;;;;;;6.47;4.03;;;17.30;92.40;;;;;;5053253;28;20036;-68
2022/06/10 04:42:14;;;;;;;4.97;3.42;;;17.30;92.50;;;;;;5053979;28;20032;-70
2022/06/10 04:44:40;;;;;;;7.53;4.20;;;17.20;92.50;;;;;;5047907;28;20037;-69
2022/06/10 04:47:07;;;;;;;4.65;3.72;;;17.20;92.50;;;;;;5053373;28;20029;-69
2022/06/10 04:49:33;;;;;;;7.43;4.35;;;17.20;92.90;;;;;;5048499;28;20069;-69
2022/06/10 04:51:58;;;;;;;7.22;3.60;;;17.30;92.80;;;;;;5049567;28;20040;-68
2022/06/10 04:54:24;;;;;;;6.88;3.58;;;17.20;92.70;;;;;;5049114;28;20496;-67
2022/06/10 04:56:50;;;;;;;5.72;3.35;;;17.30;92.60;;;;;;5062039;28;20028;-67
2022/06/10 04:59:15;;;;;;;7.47;3.30;;;17.30;92.60;;;;;;5050498;28;20032;-67
2022/06/10 05:01:41;;;;;;;6.10;3.40;;;17.40;92.60;;;;;;5048893;28;20075;-67
2022/06/10 05:04:06;;;;;;;5.80;3.40;;;17.40;92.50;;;;;;5053242;28;20025;-67
2022/06/10 05:06:32;;;;;;;6.60;3.10;;;17.40;92.40;;;;;;5049518;28;20035;-67
2022/06/10 05:08:57;;;;;;;7.55;2.78;;;17.50;92.40;;;;;;5046912;28;20051;-66
2022/06/10 05:11:23;;;;;;;6.68;3.72;;;17.60;92.40;;;;;;5049770;28;20570;-66
2022/06/10 05:13:49;;;;;;;5.75;3.50;;;17.60;92.30;;;;;;5048027;28;20526;-66
2022/06/10 05:16:15;;;;;;;9.02;2.83;;;17.60;92.30;;;;;;5049454;28;20029;-66
2022/06/10 05:18:40;;;;;;;6.72;3.20;;;17.70;92.20;;;;;;5049774;28;20033;-66
2022/06/10 05:21:06;;;;;;;5.85;2.72;;;17.70;92.20;;;;;;5048010;28;20037;-66
2022/06/10 05:23:32;;;;;;;4.50;2.25;;;17.70;92.00;;;;;;5047387;28;20107;-66
2022/06/10 05:25:58;;;;;;;4.65;2.67;;;17.80;92.00;;;;;;5052858;28;20482;-66
2022/06/10 05:28:23;;;;;;;4.85;2.70;;;17.80;91.70;;;;;;5048808;28;20043;-66
2022/06/10 05:30:49;;;;;;;5.38;2.30;;;17.80;91.90;;;;;;5046984;28;20360;-66
2022/06/10 05:33:15;;;;;;;3.67;1.95;;;17.90;91.80;;;;;;5048619;28;20475;-67
2022/06/10 05:35:42;;;;;;;4.93;2.72;;;17.90;91.70;;;;;;5047267;28;20029;-67
2022/06/10 05:38:08;;;;;;;4.68;2.03;;;18.00;91.60;;;;;;5047257;28;20036;-67
2022/06/10 05:40:34;;;;;;;5.53;2.63;;;18.00;91.40;;;;;;5048150;28;20029;-66
2022/06/10 05:43:00;;;;;;;5.03;2.13;;;18.10;91.30;;;;;;5048711;28;20035;-66
2022/06/10 05:45:26;;;;;;;6.93;2.28;;;18.10;91.00;;;;;;5048372;28;20094;-66
2022/06/10 05:47:58;;;;;;;4.43;2.10;;;18.10;91.00;;;;;;5048371;28;20028;-66
2022/06/10 05:50:32;;;;;;;6.03;3.05;;;18.20;91.10;;;;;;5048751;28;20334;-67
2022/06/10 05:52:58;;;;;;;4.18;1.95;;;18.20;91.00;;;;;;5049044;28;20128;-66
2022/06/10 05:55:25;;;;;;;6.05;2.00;;;18.30;90.70;;;;;;5047881;28;20021;-66
2022/06/10 05:57:51;;;;;;;3.72;2.05;;;18.30;90.60;;;;;;5045383;28;20653;-66
2022/06/10 06:00:26;;;;;;;4.35;2.10;;;18.30;90.90;;;;;;5046416;28;20081;-66
2022/06/10 06:02:52;;;;;;;4.60;2.25;;;18.40;90.80;;;;;;5047240;28;20657;-66
2022/06/10 06:05:20;;;;;;;4.30;1.90;;;18.40;90.50;;;;;;5046295;28;20028;-67
2022/06/10 06:07:46;;;;;;;4.00;2.30;;;18.50;90.30;;;;;;5048053;28;20241;-66
2022/06/10 06:10:18;;;;;;;3.40;1.80;;;18.50;90.30;;;;;;5045722;28;20021;-66
2022/06/10 06:12:44;;;;;;;4.72;1.90;;;18.60;90.20;;;;;;5048740;28;20037;-66
2022/06/10 06:15:12;;;;;;;5.10;2.10;;;18.60;89.80;;;;;;5047701;28;20047;-66
2022/06/10 06:17:38;;;;;;;5.70;1.98;;;18.70;90.00;;;;;;5047889;28;20551;-66
2022/06/10 06:20:05;;;;;;;5.65;1.88;;;18.70;89.60;;;;;;5046406;28;20037;-66
2022/06/10 06:22:30;;;;;;;3.15;2.38;;;18.70;89.10;;;;;;5047503;28;21829;-66
2022/06/10 06:24:59;;;;;;;4.47;1.83;;;18.70;89.00;;;;;;5046111;28;20051;-65
2022/06/10 06:27:24;;;;;;;3.50;1.75;;;18.70;89.30;;;;;;5047116;28;20032;-66
2022/06/10 06:29:50;;;;;;;3.90;1.80;;;18.80;88.70;;;;;;5046091;28;20566;-65
2022/06/10 06:32:16;;;;;;;4.63;1.90;;;18.80;88.40;;;;;;5056106;28;20102;-66
2022/06/10 06:34:41;;;;;;;3.83;1.85;;;18.80;87.70;;;;;;5046983;28;20558;-67
2022/06/10 06:37:11;;;;;;;3.88;2.30;;;18.80;87.80;;;;;;5045913;28;20119;-66
2022/06/10 06:39:36;;;;;;;4.55;1.70;;;18.80;88.00;;;;;;5046419;28;20496;-67
2022/06/10 06:42:03;;;;;;;6.00;1.92;;;18.90;88.00;;;;;;5047148;28;20036;-67
2022/06/10 06:44:29;;;;;;;3.58;2.17;;;19.00;87.40;;;;;;5046330;28;20082;-66
2022/06/10 06:46:55;;;;;;;6.18;2.00;;;18.90;87.30;;;;;;5047501;28;20024;-66
2022/06/10 06:49:25;;;;;;;5.00;1.70;;;19.00;87.30;;;;;;5045673;28;20029;-66
2022/06/10 06:51:52;;;;;;;4.65;2.03;;;19.00;87.00;;;;;;5046670;28;20053;-67
2022/06/10 06:54:18;;;;;;;3.92;1.67;;;19.10;85.80;;;;;;5047297;28;20464;-66
2022/06/10 06:56:43;;;;;;;2.92;1.55;;;19.10;84.50;;;;;;5055769;28;20024;-66
2022/06/10 06:59:09;;;;;;;5.07;1.95;;;19.10;84.90;;;;;;5072496;28;20036;-66
2022/06/10 07:01:35;;;;;;;4.43;2.00;;;19.20;85.00;;;;;;5054182;28;20021;-66
2022/06/10 07:04:03;;;;;;;3.58;1.63;;;19.20;84.90;;;;;;5070447;28;20081;-66
2022/06/10 07:06:29;;;;;;;4.75;2.08;;;19.20;85.30;;;;;;5068052;28;20039;-66
2022/06/10 07:08:55;;;;;;;4.65;1.50;;;19.30;85.00;;;;;;5074069;28;20044;-66
2022/06/10 07:11:20;;;;;;;4.72;2.03;;;19.30;85.00;;;;;;5062937;28;20045;-67
2022/06/10 07:13:46;;;;;;;5.18;1.98;;;19.40;84.60;;;;;;5053367;28;20052;-66
2022/06/10 07:16:11;;;;;;;2.35;1.45;;;19.40;84.20;;;;;;5064901;28;20032;-67
2022/06/10 07:18:37;;;;;;;5.40;1.70;;;19.50;84.00;;;;;;5059951;28;20022;-66
2022/06/10 07:21:03;;;;;;;4.63;1.83;;;19.60;83.80;;;;;;5053020;28;20472;-66
2022/06/10 07:23:29;;;;;;;4.53;1.85;;;19.60;82.90;;;;;;5071093;28;20028;-66
2022/06/10 07:25:55;;;;;;;3.67;1.60;;;19.70;83.20;;;;;;5073602;28;20029;-66
2022/06/10 07:28:21;;;;;;;7.63;2.50;;;19.70;82.80;;;;;;5071332;28;20028;-66
2022/06/10 07:30:47;;;;;;;4.45;1.90;;;19.80;83.00;;;;;;5054394;28;20037;-66
2022/06/10 07:33:13;;;;;;;6.78;1.90;;;19.90;82.30;;;;;;5051002;28;20488;-67
2022/06/10 07:35:39;;;;;;;4.90;1.92;;;19.90;81.90;;;;;;5060608;28;20070;-66
2022/06/10 07:38:06;;;;;;;5.88;2.10;;;19.90;81.10;;;;;;5054662;28;20029;-66
2022/06/10 07:43:23;;;;;;;3.85;2.10;;;20.00;80.10;;;;;;5066330;28;20032;-66
2022/06/10 07:45:49;;;;;;;3.17;1.52;;;20.10;80.30;;;;;;5071016;28;20021;-66
2022/06/10 07:48:15;;;;;;;6.18;1.83;;;20.20;79.10;;;;;;5061501;28;20147;-67
2022/06/10 07:50:42;;;;;;;5.18;1.90;;;20.30;78.40;;;;;;5051038;28;20025;-67
2022/06/10 07:53:09;;;;;;;4.30;1.80;;;20.30;78.40;;;;;;5052556;28;20055;-67
2022/06/10 07:55:36;;;;;;;5.70;1.92;;;20.30;77.80;;;;;;5054600;28;20099;-68
2022/06/10 07:58:01;;;;;;;3.45;1.60;;;20.30;77.20;;;;;;5069941;28;20145;-67
2022/06/10 08:00:27;;;;;;;6.00;1.88;;;20.30;77.20;;;;;;5074660;28;20020;-66
2022/06/10 08:02:53;;;;;;;4.82;1.88;;;20.40;77.10;;;;;;5066591;28;20496;-67
2022/06/10 08:05:19;;;;;;;5.35;2.22;;;20.40;76.70;;;;;;5069835;28;20028;-67
2022/06/10 08:07:46;;;;;;;6.13;2.42;;;20.40;76.90;;;;;;5053766;28;20055;-66
2022/06/10 08:10:28;;;;;;;3.10;1.52;;;20.50;76.40;;;;;;5063574;28;20123;-66
2022/06/10 08:12:54;;;;;;;5.60;2.85;;;20.50;77.10;;;;;;5073015;28;20082;-66
2022/06/10 08:15:21;;;;;;;5.28;1.75;;;20.60;76.30;;;;;;5094477;28;20028;-66
2022/06/10 08:17:47;;;;;;;7.82;2.03;;;20.60;76.40;;;;;;5077094;28;20035;-67
2022/06/10 08:23:13;;;;;;;4.90;2.17;;;20.70;76.60;;;;;;5054782;28;20033;-66
2022/06/10 08:25:39;;;;;;;8.63;3.22;;;20.80;76.90;;;;;;5061884;28;20121;-66
2022/06/10 08:28:08;;;;;;;5.50;1.90;;;20.80;76.30;;;;;;5055943;28;20021;-66
2022/06/10 08:30:34;;;;;;;6.20;1.90;;;20.90;75.70;;;;;;5069486;28;20532;-66
2022/06/10 08:33:03;;;;;;;4.30;1.90;;;20.90;76.00;;;;;;5071247;28;20032;-66
2022/06/10 08:35:30;;;;;;;4.88;2.13;;;21.10;76.10;;;;;;5048426;28;20033;-66
2022/06/10 08:37:56;;;;;;;5.93;1.80;;;21.10;76.70;;;;;;5051110;28;20085;-66
2022/06/10 08:40:39;;;;;;;5.88;1.92;;;21.30;75.70;;;;;;5046949;28;20478;-66
2022/06/10 08:43:34;;;;;;;6.28;2.45;;;21.30;74.90;;;;;;5050381;28;20025;-66
2022/06/10 08:46:23;;;;;;;5.80;2.03;;;21.40;75.30;;;;;;5047833;28;20039;-66
2022/06/10 08:49:10;;;;;;;8.30;2.20;;;21.50;75.00;;;;;;5048383;28;20478;-66
2022/06/10 08:51:58;;;;;;;4.85;1.90;;;21.50;73.40;;;;;;5050012;28;20071;-66
2022/06/10 08:54:35;;;;;;;5.82;1.80;;;21.60;73.30;;;;;;5047923;28;22131;-66
2022/06/10 08:57:06;;;;;;;6.78;1.67;;;21.70;73.60;;;;;;5049029;28;20040;-74
2022/06/10 08:59:41;;;;;;;9.65;2.63;;;21.90;72.00;;;;;;5049169;28;20032;-73
2022/06/10 09:02:18;;;;;;;4.70;1.98;;;22.00;72.60;;;;;;5049470;28;20033;-73
2022/06/10 09:05:07;;;;;;;4.22;1.88;;;22.10;72.10;;;;;;5047278;28;20036;-73
2022/06/10 09:07:40;;;;;;;6.78;1.88;;;22.20;70.60;;;;;;5048861;28;20114;-73
2022/06/10 09:10:15;;;;;;;6.27;1.63;;;22.30;69.70;;;;;;5048768;28;20037;-72
2022/06/10 09:12:59;;;;;;;6.53;2.08;;;22.20;69.40;;;;;;5047878;28;20040;-73
2022/06/10 09:15:28;;;;;;;3.45;1.60;;;22.30;69.80;;;;;;5048507;28;20032;-72
2022/06/10 09:18:03;;;;;;;4.82;1.90;;;22.40;69.50;;;;;;5059049;28;20119;-73
2022/06/10 09:20:46;;;;;;;3.40;1.67;;;22.50;69.30;;;;;;5048322;28;20068;-73
2022/06/10 09:23:29;;;;;;;4.18;1.40;;;22.60;69.20;;;;;;5048243;28;20355;-72
2022/06/10 09:26:08;;;;;;;3.35;1.75;;;22.70;68.70;;;;;;5063069;28;20038;-73
2022/06/10 09:28:34;;;;;;;3.88;1.55;;;22.80;69.00;;;;;;5047760;28;20161;-73
2022/06/10 09:31:11;;;;;;;4.55;2.28;;;22.80;68.40;;;;;;5048813;28;20118;-73
2022/06/10 09:33:46;;;;;;;11.73;2.92;;;22.80;67.90;;;;;;5049376;28;20059;-73
2022/06/10 09:36:31;;;;;;;6.68;1.90;;;22.70;67.70;;;;;;5049617;28;20122;-73
2022/06/10 09:42:35;;;;;;;7.38;2.42;;;22.80;68.10;;;;;;5049659;28;20132;-73
2022/06/10 09:45:20;;;;;;;6.47;1.95;;;22.80;67.60;;;;;;5060011;28;20029;-73
2022/06/10 09:47:59;;;;;;;5.72;1.98;;;22.80;68.10;;;;;;5053382;28;20094;-73
2022/06/10 09:50:36;;;;;;;4.82;1.75;;;22.80;66.70;;;;;;5063083;28;20036;-72
2022/06/10 09:53:22;;;;;;;4.40;1.60;;;22.70;65.70;;;;;;5056208;28;20052;-74
2022/06/10 09:56:05;;;;;;;5.60;1.85;;;22.70;65.10;;;;;;5055291;28;20082;-74
2022/06/10 09:58:49;;;;;;;5.47;2.03;;;22.80;65.70;;;;;;5059103;28;20028;-73
2022/06/10 10:01:40;;;;;;;3.40;1.70;;;22.80;66.70;;;;;;5052326;28;20842;-73
2022/06/10 10:04:25;;;;;;;3.10;1.70;;;22.90;66.30;;;;;;5060143;28;20040;-73
2022/06/10 10:07:28;;;;;;;7.07;2.13;;;23.00;65.80;;;;;;5035840;28;20029;-73
2022/06/10 10:10:18;;;;;;;4.68;2.10;;;23.00;65.10;;;;;;5046144;28;20139;-74
2022/06/10 10:12:56;;;;;;;5.90;1.75;;;23.00;64.10;;;;;;5045553;28;20064;-73
2022/06/10 10:15:34;;;;;;;5.32;2.05;;;23.10;64.60;;;;;;5046778;28;20029;-74
2022/06/10 10:18:35;;;;;;;6.63;1.98;;;23.20;64.00;;;;;;5048353;28;20036;-71
2022/06/10 10:21:14;;;;;;;7.22;1.98;;;23.30;63.60;;;;;;5048579;28;20037;-72
2022/06/10 10:23:49;;;;;;;5.20;2.08;;;23.30;64.20;;;;;;5046239;28;20261;-73
2022/06/10 10:26:20;;;;;;;4.78;1.73;;;23.30;61.80;;;;;;5044840;28;20048;-72
2022/06/10 10:28:47;;;;;;;4.00;1.73;;;23.30;62.30;;;;;;5040592;28;20020;-73
2022/06/10 10:31:24;;;;;;;11.10;2.53;;;23.30;62.70;;;;;;5046481;28;20024;-72
2022/06/10 10:33:50;;;;;;;6.95;2.00;;;23.40;61.60;;;;;;5046543;28;20054;-73
2022/06/10 10:36:24;;;;;;;5.07;1.83;;;23.40;61.90;;;;;;5046541;28;20076;-72
2022/06/10 10:38:50;;;;;;;3.55;1.58;;;23.40;60.90;;;;;;5046815;28;20033;-73
2022/06/10 10:41:28;;;;;;;3.95;1.75;;;23.40;61.20;;;;;;5046363;28;20042;-72
2022/06/10 10:43:58;;;;;;;9.30;2.45;;;23.50;61.10;;;;;;5046658;28;20029;-73
2022/06/10 10:46:40;;;;;;;5.30;1.83;;;23.60;60.60;;;;;;5047548;28;20032;-73
2022/06/10 10:49:26;;;;;;;6.03;2.13;;;23.60;59.70;;;;;;5046421;28;20060;-73
2022/06/10 10:51:53;;;;;;;5.75;2.50;;;23.70;59.40;;;;;;5052121;28;20286;-73
2022/06/10 10:54:33;;;;;;;5.05;1.88;;;23.60;58.80;;;;;;5046720;28;20383;-72
2022/06/10 10:57:00;;;;;;;5.07;1.98;;;23.60;58.40;;;;;;5048095;28;20392;-72
2022/06/10 10:59:38;;;;;;;4.53;1.85;;;23.70;58.60;;;;;;5047019;28;20169;-72
2022/06/10 11:02:48;;;;;;;4.90;1.85;;;23.70;58.60;;;;;;5045457;28;20761;-73
2022/06/10 11:05:36;;;;;;;3.35;1.52;;;23.70;58.60;;;;;;5045051;28;20040;-73
2022/06/10 11:08:12;;;;;;;4.95;1.80;;;23.70;59.40;;;;;;5045809;28;20395;-72
2022/06/10 11:11:04;;;;;;;4.30;1.50;;;23.80;59.00;;;;;;5044758;28;20531;-72
2022/06/10 11:13:44;;;;;;;3.20;1.92;;;23.90;59.40;;;;;;5040954;28;20128;-72
2022/06/10 11:16:27;;;;;;;5.28;1.90;;;23.90;58.50;;;;;;5047103;28;21572;-72
2022/06/10 11:19:13;;;;;;;4.50;1.88;;;23.90;58.40;;;;;;5045933;28;20016;-72
2022/06/10 11:22:01;;;;;;;5.32;1.80;;;24.00;58.20;;;;;;5047079;28;20426;-74
2022/06/10 11:24:30;;;;;;;5.82;2.25;;;23.90;59.10;;;;;;5044405;28;20796;-73
2022/06/10 11:26:59;;;;;;;4.68;1.73;;;24.00;59.00;;;;;;5054062;28;20070;-72
2022/06/10 11:29:26;;;;;;;3.70;1.75;;;24.00;58.90;;;;;;5052706;28;20028;-73
2022/06/10 11:32:00;;;;;;;4.60;1.90;;;24.10;59.00;;;;;;5050884;28;20062;-72
2022/06/10 11:34:39;;;;;;;5.10;1.90;;;24.10;58.20;;;;;;5050601;28;20037;-65
2022/06/10 11:37:33;;;;;;;5.50;1.73;;;24.10;58.70;;;;;;5050382;28;20488;-66
2022/06/10 11:40:08;;;;;;;4.57;2.38;;;24.20;58.50;;;;;;5050509;28;20031;-66
2022/06/10 11:43:03;;;;;;;4.15;1.92;;;24.20;58.50;;;;;;5051707;28;20373;-66
2022/06/10 11:45:36;;;;;;;5.32;1.95;;;24.20;58.60;;;;;;5048902;28;20044;-66
2022/06/10 11:48:14;;;;;;;5.00;2.22;;;24.20;58.00;;;;;;5051099;28;20071;-66
2022/06/10 11:50:55;;;;;;;4.40;1.58;;;24.10;57.20;;;;;;5052390;28;20150;-65
2022/06/10 11:53:39;;;;;;;3.55;1.60;;;24.10;57.90;;;;;;5050200;28;20036;-65
2022/06/10 12:00:02;;;;;;;4.15;1.70;;;24.00;57.10;;;;;;5048607;28;20438;-66
2022/06/10 12:02:43;;;;;;;5.65;1.80;;;24.10;56.90;;;;;;4995298;28;20026;-65
2022/06/10 12:05:26;;;;;;;4.38;1.65;;;24.20;57.40;;;;;;5042631;28;20486;-66
2022/06/10 12:08:05;;;;;;;5.30;1.60;;;24.30;57.80;;;;;;5049935;28;20049;-66
2022/06/10 12:10:42;;;;;;;3.03;1.48;;;24.40;57.30;;;;;;5049425;28;20090;-66
2022/06/10 12:13:11;;;;;;;4.80;1.92;;;24.40;57.10;;;;;;5049972;28;20036;-66
2022/06/10 12:15:57;;;;;;;3.92;1.83;;;24.50;56.70;;;;;;5049218;28;20082;-66
2022/06/10 12:18:27;;;;;;;3.55;1.70;;;24.60;56.40;;;;;;5049310;28;20213;-65
2022/06/10 12:20:59;;;;;;;4.35;1.60;;;24.70;55.90;;;;;;5049323;28;20475;-66
2022/06/10 12:23:28;;;;;;;4.15;1.80;;;24.70;55.30;;;;;;5048956;28;20060;-66
2022/06/10 12:26:18;;;;;;;6.82;2.28;;;24.80;56.00;;;;;;5049266;28;20139;-66
2022/06/10 12:28:54;;;;;;;4.35;2.17;;;24.90;56.50;;;;;;5055283;28;20751;-66
2022/06/10 12:31:34;;;;;;;3.60;1.73;;;25.00;55.20;;;;;;5049346;28;20509;-66
2022/06/10 12:34:14;;;;;;;3.40;1.63;;;25.00;55.70;;;;;;5048640;28;20059;-66
2022/06/10 12:36:50;;;;;;;4.10;1.60;;;25.10;55.60;;;;;;5048730;28;20097;-66
2022/06/10 12:39:34;;;;;;;2.92;1.30;;;25.20;55.40;;;;;;5048676;28;20111;-66
2022/06/10 12:42:10;;;;;;;3.53;1.80;;;25.30;55.40;;;;;;5051129;28;20067;-65
2022/06/10 12:44:41;;;;;;;4.05;1.48;;;25.40;55.10;;;;;;5049747;28;20284;-65
2022/06/10 12:47:11;;;;;;;2.88;1.63;;;25.50;54.40;;;;;;5050433;28;20028;-65
2022/06/10 12:49:38;;;;;;;3.20;1.65;;;25.60;54.40;;;;;;5048744;28;20731;-66
2022/06/10 12:52:39;;;;;;;4.57;1.85;;;25.70;53.10;;;;;;5049690;28;20048;-64
2022/06/10 12:55:13;;;;;;;5.18;1.33;;;25.70;53.50;;;;;;5034815;28;20037;-64
2022/06/10 12:57:41;;;;;;;4.05;1.52;;;25.80;53.30;;;;;;5049841;28;21291;-65
2022/06/10 13:00:29;;;;;;;3.38;1.42;;;25.90;52.50;;;;;;5048992;28;20033;-64
2022/06/10 13:03:11;;;;;;;4.13;1.48;;;26.00;53.20;;;;;;5048718;28;20039;-65
2022/06/10 13:05:37;;;;;;;5.05;1.67;;;26.10;52.50;;;;;;5048023;28;20032;-65
2022/06/10 13:08:23;;;;;;;4.25;1.98;;;26.00;50.60;;;;;;5049480;28;20056;-64
2022/06/10 13:10:57;;;;;;;3.75;1.92;;;26.00;50.90;;;;;;5048169;28;20036;-64
2022/06/10 13:13:23;;;;;;;;;;;26.10;51.30;;;;;;5048969;28;20661;-65
2022/06/10 13:16:35;;;;;;;2.90;1.50;;;26.00;50.30;;;;;;5048818;28;19999;-65
2022/06/10 13:19:01;;;;;;;2.90;1.52;;;26.10;51.60;;;;;;5038932;28;21316;-65
2022/06/10 13:21:32;;;;;;;3.63;1.55;;;26.20;51.20;;;;;;5049919;28;20031;-64
2022/06/10 13:23:58;;;;;;;2.97;1.67;;;26.30;50.50;;;;;;5048493;28;20037;-64
2022/06/10 13:26:24;;;;;;;1.85;1.33;;;26.50;50.40;;;;;;5055827;28;20133;-64
2022/06/10 13:28:50;;;;;;;3.05;1.40;;;26.60;50.20;;;;;;5048830;28;20469;-65
2022/06/10 13:31:24;;;;;;;2.97;1.42;;;26.70;50.10;;;;;;5048153;28;20043;-65
2022/06/10 13:33:54;;;;;;;4.25;1.50;;;26.80;49.60;;;;;;5048727;28;20033;-64
2022/06/10 13:36:20;;;;;;;5.97;1.92;;;26.90;49.50;;;;;;5049565;28;20021;-64
2022/06/10 13:38:51;;;;;;;6.53;2.63;;;26.90;49.10;;;;;;5046255;28;20033;-64